Terminal Aerodrome Forecast
Issued by NWS Upton, NY

Home | Current Version | Previous Version | Text Only | Print | Product List | Glossary On
Versions: 1 2 3 4 5 6 7 8 9 10 11 12 13 14 15 16 17 18 19 20 21 22 23 24 25 26 27 28 29
000
FTUS41 KOKX 291740
TAFLGA
TAF
KLGA 291740Z 2918/3018 05006KT P6SM FEW060 SCT250
     FM291830 18010KT P6SM FEW060 SCT250
     FM300100 22009KT P6SM FEW060 SCT250
     FM301100 21009KT 6SM HZ FEW030 SCT050
     FM301500 20014KT P6SM SCT030 BKN050=

USA.gov is the U.S. government's official web portal to all federal, state and local government web resources and services.